航空気象通報

ウインドサーファーのための航空気象通報による風予報です。

2/18-2/19の航空気象通報(国内、海外)

2012年02月18日 22時45分00秒 | TAF

羽田空港
TAF RJTT 180841Z 1809/1912 35018KT 9999 FEW030
      TEMPO 1809/1811 35020G30KT
      BECMG 1816/1818 36008KT
      BECMG 1903/1906 09007KT
      BECMG 1909/1912 03006KT
日本時間18日18時-19日01時:350度から18ノットの風
但し、18日18-20時の間:350度から20ノット、突風30ノット
19日01-03時:風が変化
03-12時:360度から8ノットの風
12-15時:風が変化
15-18時:090度から7ノットの風
18-21時:風が変化
21時:030度から6ノットの風

静岡空港
TAF RJNS 180839Z 1809/1912 28012KT 9999 FEW030
日本時間18日18時-19日21時:280度から12ノットの風

福岡空港
TAF RJFF 180843Z 1809/1912 32007KT 9000 -SHSN FEW015 BKN030
      TEMPO 1809/1811 1500 -SHSN
      TEMPO 1811/1813 3000 -SHSN
      BECMG 1812/1814 16003KT
      BECMG 1818/1821 30008KT
      TEMPO 1818/1824 2000 -SHSN
日本時間18日18-21時:320度から7ノットの風
21-23時:風が変化
23時-19日03時:160度から3ノットの風
03-06時:風が変化
06-21時:300度から8ノットの風

那覇空港
TAF ROAH 180838Z 1809/1912 01015KT 9999 FEW030 BKN045
日本時間18日18時-19日21時:010度から15ノットの風

マウイのカフルイ空港
TAF PHOG 181121Z 1812/1912 06012G18KT P6SM FEW025 SCT045
     FM182000 06020G30KT P6SM FEW035 SCT050
     FM190500 06012G18KT P6SM FEW035 SCT050
      AMD LTD TO WX VIS AND WIND TIL 181600
ハワイ時間18日02-10時:060度から12ノット、突風18ノット
10-19時:060度から20ノット、突風30ノット
19時-19日02時:060度から12ノット、突風18ノット

サイパン空港
TAF PGSN 181136Z 1812/1912 08010KT P6SM SCT020
マリアナ時間18日22時-19日22時:080度から10ノットの風

コメント